createdAt,value
2017-04-01T00:00:20.941Z,0
2017-04-01T00:01:01.581Z,0
2017-04-01T00:01:42.163Z,0
2017-04-01T00:02:22.778Z,0
2017-04-01T00:03:03.365Z,0
2017-04-01T00:03:43.955Z,0
2017-04-01T00:04:24.565Z,0
2017-04-01T00:05:05.171Z,0
2017-04-01T00:05:45.763Z,0
2017-04-01T00:06:26.391Z,0
2017-04-01T00:07:06.983Z,0
2017-04-01T00:07:47.598Z,0
2017-04-01T00:08:28.199Z,0
2017-04-01T00:09:08.804Z,0
2017-04-01T00:09:49.390Z,0
2017-04-01T00:10:30.001Z,0
2017-04-01T00:11:10.634Z,0
2017-04-01T00:11:51.226Z,0
2017-04-01T00:12:31.829Z,0
2017-04-01T00:13:12.448Z,0
2017-04-01T00:13:53.078Z,0
2017-04-01T00:14:33.674Z,0
2017-04-01T00:15:14.288Z,0
2017-04-01T00:15:54.913Z,0
2017-04-01T00:16:35.515Z,0
2017-04-01T00:17:16.112Z,0
2017-04-01T00:17:56.722Z,0
2017-04-01T00:18:37.314Z,0
2017-04-01T00:19:17.922Z,0
2017-04-01T00:19:58.543Z,0
2017-04-01T00:20:39.125Z,0
2017-04-01T00:21:19.790Z,0
2017-04-01T00:22:00.389Z,0
2017-04-01T00:22:40.971Z,0
2017-04-01T00:23:21.577Z,0
2017-04-01T00:24:02.168Z,0
2017-04-01T00:24:42.795Z,0
2017-04-01T00:25:23.386Z,0
2017-04-01T00:26:04.006Z,0
2017-04-01T00:26:44.585Z,0
2017-04-01T00:27:25.203Z,0
2017-04-01T00:28:05.797Z,0
2017-04-01T00:28:46.393Z,0
2017-04-01T00:29:26.986Z,0
2017-04-01T00:30:07.583Z,0
2017-04-01T00:30:48.183Z,0
2017-04-01T00:31:28.803Z,0
2017-04-01T00:32:09.399Z,0
2017-04-01T00:32:50.012Z,0
2017-04-01T00:33:30.616Z,0
2017-04-01T00:34:11.206Z,0
2017-04-01T00:34:51.783Z,0
2017-04-01T00:35:32.365Z,0
2017-04-01T00:36:12.957Z,0
2017-04-01T00:36:53.577Z,0
2017-04-01T00:37:34.183Z,0
2017-04-01T00:38:14.774Z,0
2017-04-01T00:38:55.391Z,0
2017-04-01T00:39:36.004Z,0
2017-04-01T00:40:16.607Z,0
2017-04-01T00:40:57.289Z,0
2017-04-01T00:41:37.943Z,0
2017-04-01T00:42:18.551Z,0
2017-04-01T00:42:59.131Z,0
2017-04-01T00:43:39.766Z,0
2017-04-01T00:44:20.362Z,0
2017-04-01T00:45:01.067Z,0
2017-04-01T00:45:41.671Z,0
2017-04-01T00:46:22.285Z,0
2017-04-01T00:47:02.907Z,0
2017-04-01T00:47:43.491Z,0
2017-04-01T00:48:24.092Z,0
2017-04-01T00:49:04.701Z,0
2017-04-01T00:49:45.314Z,0
2017-04-01T00:50:25.925Z,0
2017-04-01T00:51:06.538Z,0
2017-04-01T00:51:47.180Z,0
2017-04-01T00:52:27.756Z,0
2017-04-01T00:53:08.383Z,0
2017-04-01T00:53:49.066Z,0
2017-04-01T00:54:29.722Z,0
2017-04-01T00:55:10.362Z,0
2017-04-01T00:55:51.114Z,0
2017-04-01T00:56:31.856Z,0
2017-04-01T00:57:12.437Z,0
2017-04-01T00:57:53.040Z,0
2017-04-01T00:58:33.644Z,0
2017-04-01T00:59:14.239Z,0
2017-04-01T00:59:54.829Z,0
2017-04-01T01:00:35.450Z,0
2017-04-01T01:01:16.026Z,0
2017-04-01T01:01:56.596Z,0
2017-04-01T01:02:37.191Z,0
2017-04-01T01:03:17.790Z,0
2017-04-01T01:03:58.398Z,0
2017-04-01T01:04:39.008Z,0
2017-04-01T01:05:19.622Z,0
2017-04-01T01:06:00.283Z,0
2017-04-01T01:06:40.869Z,0
2017-04-01T01:07:21.474Z,0
2017-04-01T01:08:02.063Z,0
2017-04-01T01:08:42.668Z,0
2017-04-01T01:09:23.269Z,0
2017-04-01T01:10:03.880Z,0
2017-04-01T01:10:44.471Z,0
2017-04-01T01:11:25.092Z,0
2017-04-01T01:12:05.673Z,0
2017-04-01T01:12:46.243Z,0
2017-04-01T01:13:26.812Z,0
2017-04-01T01:14:07.417Z,0
2017-04-01T01:14:48.010Z,0
2017-04-01T01:15:28.602Z,0
2017-04-01T01:16:09.219Z,0
2017-04-01T01:16:49.817Z,0
2017-04-01T01:17:30.449Z,0
2017-04-01T01:18:11.025Z,0
2017-04-01T01:18:51.636Z,0
2017-04-01T01:19:32.255Z,0
2017-04-01T01:20:12.872Z,0
2017-04-01T01:20:53.543Z,0
2017-04-01T01:21:34.145Z,0
2017-04-01T01:22:14.727Z,0
2017-04-01T01:22:55.372Z,0
2017-04-01T01:23:35.956Z,0
2017-04-01T01:24:16.528Z,0
2017-04-01T01:24:57.122Z,0
2017-04-01T01:25:37.719Z,0
2017-04-01T01:26:18.306Z,0
2017-04-01T01:26:58.884Z,0
2017-04-01T01:27:39.449Z,0
2017-04-01T01:28:20.033Z,0
2017-04-01T01:29:00.596Z,0
2017-04-01T01:29:41.202Z,0
2017-04-01T01:30:21.900Z,0
2017-04-01T01:31:02.495Z,0
2017-04-01T01:31:43.100Z,0
2017-04-01T01:32:23.693Z,0
2017-04-01T01:33:04.249Z,0
2017-04-01T01:33:44.820Z,0
2017-04-01T01:34:25.396Z,0
2017-04-01T01:35:05.968Z,0
2017-04-01T01:35:46.544Z,0
2017-04-01T01:36:27.144Z,0
2017-04-01T01:37:07.720Z,0
2017-04-01T01:37:48.344Z,0
2017-04-01T01:38:28.989Z,0
2017-04-01T01:39:09.570Z,0
2017-04-01T01:39:50.178Z,0
2017-04-01T01:40:30.769Z,0
2017-04-01T01:41:11.382Z,0
2017-04-01T01:41:51.962Z,0
2017-04-01T01:42:32.569Z,0
2017-04-01T01:43:13.149Z,0
2017-04-01T01:43:53.730Z,0
2017-04-01T01:44:34.338Z,0
2017-04-01T01:45:14.929Z,0
2017-04-01T01:45:55.539Z,0
2017-04-01T01:46:36.116Z,0
2017-04-01T01:47:16.730Z,0
2017-04-01T01:47:57.304Z,0
2017-04-01T01:48:37.889Z,0
2017-04-01T01:49:18.502Z,0
2017-04-01T01:49:59.058Z,0
2017-04-01T01:50:39.648Z,0
2017-04-01T01:51:20.302Z,0
2017-04-01T01:52:00.887Z,0
2017-04-01T01:52:41.507Z,0
2017-04-01T01:53:22.101Z,0
2017-04-01T01:54:02.703Z,0
2017-04-01T01:54:43.285Z,0
2017-04-01T01:55:23.866Z,0
2017-04-01T01:56:04.465Z,0
2017-04-01T01:56:45.120Z,0
2017-04-01T01:57:25.722Z,0
2017-04-01T01:58:06.346Z,0
2017-04-01T01:58:49.885Z,0
2017-04-01T01:59:30.535Z,0
2017-04-01T02:00:11.090Z,0
2017-04-01T02:00:51.683Z,0
2017-04-01T02:01:32.369Z,0
2017-04-01T02:02:13.027Z,0
2017-04-01T02:02:53.588Z,0
2017-04-01T02:03:34.197Z,0
2017-04-01T02:04:14.768Z,0
2017-04-01T02:04:55.361Z,0
2017-04-01T02:05:35.935Z,0
2017-04-01T02:06:16.502Z,0
2017-04-01T02:06:57.093Z,0
2017-04-01T02:07:37.671Z,0
2017-04-01T02:08:18.268Z,0
2017-04-01T02:08:58.871Z,0
2017-04-01T02:09:39.458Z,0
2017-04-01T02:10:20.048Z,0
2017-04-01T02:11:00.648Z,0
2017-04-01T02:11:41.248Z,0
2017-04-01T02:12:21.863Z,0
2017-04-01T02:13:02.448Z,0
2017-04-01T02:13:43.066Z,0
2017-04-01T02:14:23.629Z,0
2017-04-01T02:15:04.188Z,0
2017-04-01T02:15:44.782Z,0
2017-04-01T02:16:25.380Z,0
2017-04-01T02:17:05.964Z,0
2017-04-01T02:17:46.559Z,0
2017-04-01T02:18:27.154Z,0
2017-04-01T02:19:07.757Z,0
2017-04-01T02:19:48.352Z,0
2017-04-01T02:20:28.920Z,0
2017-04-01T02:21:09.522Z,0
2017-04-01T02:21:50.065Z,0
2017-04-01T02:22:30.652Z,0
2017-04-01T02:23:11.226Z,0
2017-04-01T02:23:51.810Z,0
2017-04-01T02:24:32.383Z,0
2017-04-01T02:25:12.974Z,0
2017-04-01T02:25:53.563Z,0
2017-04-01T02:26:34.146Z,0
2017-04-01T02:27:14.716Z,0
2017-04-01T02:27:55.315Z,0
2017-04-01T02:28:35.890Z,0
2017-04-01T02:29:16.504Z,0
2017-04-01T02:29:57.082Z,0
2017-04-01T02:30:37.654Z,0
2017-04-01T02:31:18.250Z,0
2017-04-01T02:31:58.893Z,0
2017-04-01T02:32:39.486Z,0
2017-04-01T02:33:20.092Z,0
2017-04-01T02:34:00.655Z,0
2017-04-01T02:34:41.240Z,0
2017-04-01T02:35:21.808Z,0
2017-04-01T02:36:02.439Z,0
2017-04-01T02:36:43.009Z,0
2017-04-01T02:37:23.615Z,0
2017-04-01T02:38:04.212Z,0
2017-04-01T02:38:44.846Z,0
2017-04-01T02:39:25.433Z,0
2017-04-01T02:40:06.034Z,0
2017-04-01T02:40:46.627Z,0
2017-04-01T02:41:27.213Z,0
2017-04-01T02:42:07.781Z,0
2017-04-01T02:42:48.377Z,0
2017-04-01T02:43:28.959Z,0
2017-04-01T02:44:09.579Z,0
2017-04-01T02:44:50.170Z,0
2017-04-01T02:45:30.755Z,0
2017-04-01T02:46:11.339Z,0
2017-04-01T02:46:51.922Z,0
2017-04-01T02:47:32.500Z,0
2017-04-01T02:48:13.072Z,0
2017-04-01T02:48:53.658Z,0
2017-04-01T02:49:34.251Z,0
2017-04-01T02:50:14.816Z,0
2017-04-01T02:50:55.397Z,0
2017-04-01T02:51:35.991Z,0
2017-04-01T02:52:16.616Z,0
2017-04-01T02:52:57.256Z,0
2017-04-01T02:53:37.832Z,0
2017-04-01T02:54:18.431Z,0
2017-04-01T02:54:59.003Z,0
2017-04-01T02:55:39.583Z,0
2017-04-01T02:56:20.164Z,0
2017-04-01T02:57:00.735Z,0
2017-04-01T02:57:41.320Z,0
2017-04-01T02:58:21.911Z,0
2017-04-01T02:59:02.504Z,0
2017-04-01T02:59:43.100Z,0
2017-04-01T03:00:23.668Z,0
2017-04-01T03:01:04.262Z,0
2017-04-01T03:01:44.858Z,0
2017-04-01T03:02:25.434Z,0
2017-04-01T03:03:06.033Z,0
2017-04-01T03:03:46.614Z,0
2017-04-01T03:04:27.203Z,0
2017-04-01T03:05:07.830Z,0
2017-04-01T03:05:48.403Z,0
2017-04-01T03:06:28.969Z,0
2017-04-01T03:07:09.567Z,0
2017-04-01T03:07:50.142Z,0
2017-04-01T03:08:30.746Z,0
2017-04-01T03:09:11.360Z,0
2017-04-01T03:09:51.974Z,0
2017-04-01T03:10:32.565Z,0
2017-04-01T03:11:13.170Z,0
2017-04-01T03:11:53.788Z,0
2017-04-01T03:12:34.365Z,0
2017-04-01T03:13:14.955Z,0
2017-04-01T03:13:55.519Z,0
2017-04-01T03:14:36.091Z,0
2017-04-01T03:15:16.671Z,0
2017-04-01T03:15:57.276Z,0
2017-04-01T03:16:37.881Z,0
2017-04-01T03:17:18.489Z,0
2017-04-01T03:17:59.064Z,0
2017-04-01T03:18:39.664Z,0
2017-04-01T03:19:20.246Z,0
2017-04-01T03:20:00.832Z,0
2017-04-01T03:20:41.419Z,0
2017-04-01T03:21:21.997Z,0
2017-04-01T03:22:02.614Z,0
2017-04-01T03:22:43.219Z,0
2017-04-01T03:23:23.793Z,0
2017-04-01T03:24:04.361Z,0
2017-04-01T03:24:44.943Z,0
2017-04-01T03:25:25.573Z,0
2017-04-01T03:26:06.241Z,0
2017-04-01T03:26:46.809Z,0
2017-04-01T03:27:27.512Z,0
2017-04-01T03:28:08.103Z,0
2017-04-01T03:28:48.675Z,0
2017-04-01T03:29:29.257Z,0
2017-04-01T03:30:09.861Z,0
2017-04-01T03:30:50.462Z,0
2017-04-01T03:31:31.069Z,0
2017-04-01T03:32:11.674Z,0
2017-04-01T03:32:52.305Z,0
2017-04-01T03:33:32.937Z,0
2017-04-01T03:34:13.513Z,0
2017-04-01T03:34:54.098Z,0
2017-04-01T03:35:34.702Z,0
2017-04-01T03:36:15.276Z,0
2017-04-01T03:36:55.892Z,0
2017-04-01T03:37:36.480Z,0
2017-04-01T03:38:17.099Z,0
2017-04-01T03:38:57.684Z,0
2017-04-01T03:39:38.291Z,0
2017-04-01T03:40:18.896Z,0
2017-04-01T03:40:59.488Z,0
2017-04-01T03:41:40.077Z,0
2017-04-01T03:42:21.063Z,0
2017-04-01T03:43:01.768Z,0
2017-04-01T03:43:43.291Z,0
2017-04-01T03:44:23.885Z,0
2017-04-01T03:45:04.527Z,0
2017-04-01T03:45:45.102Z,0
2017-04-01T03:46:25.932Z,0
2017-04-01T03:47:06.526Z,0
2017-04-01T03:47:47.114Z,0
2017-04-01T03:48:27.693Z,0
2017-04-01T03:49:08.285Z,0
2017-04-01T03:49:48.865Z,0
2017-04-01T03:50:29.462Z,0
2017-04-01T03:51:10.075Z,0
2017-04-01T03:51:50.659Z,0
2017-04-01T03:52:31.245Z,0
2017-04-01T03:53:11.878Z,0
2017-04-01T03:53:52.420Z,0
2017-04-01T03:54:33.013Z,0
2017-04-01T03:55:13.629Z,0
2017-04-01T03:55:54.217Z,0
2017-04-01T03:56:34.823Z,0
2017-04-01T03:57:15.408Z,0
2017-04-01T03:57:56.013Z,0
2017-04-01T03:58:36.580Z,0
2017-04-01T03:59:17.172Z,0
2017-04-01T03:59:57.754Z,0
2017-04-01T04:00:38.330Z,0
2017-04-01T04:01:18.940Z,0
2017-04-01T04:01:59.561Z,0
2017-04-01T04:02:40.124Z,0
2017-04-01T04:03:20.723Z,0
2017-04-01T04:04:01.313Z,0
2017-04-01T04:04:41.946Z,0
2017-04-01T04:05:22.617Z,0
2017-04-01T04:06:03.185Z,0
2017-04-01T04:06:43.806Z,0
2017-04-01T04:07:24.380Z,0
2017-04-01T04:08:04.954Z,0
2017-04-01T04:08:45.609Z,0
2017-04-01T04:09:26.205Z,0
2017-04-01T04:10:06.781Z,0
2017-04-01T04:10:47.367Z,0
2017-04-01T04:11:27.947Z,4
2017-04-01T04:12:08.531Z,4
2017-04-01T04:12:49.109Z,4
2017-04-01T04:13:29.692Z,4
2017-04-01T04:14:10.313Z,0
2017-04-01T04:14:50.903Z,4
2017-04-01T04:15:31.488Z,4
2017-04-01T04:16:12.144Z,4
2017-04-01T04:16:52.719Z,8
2017-04-01T04:17:33.327Z,4
2017-04-01T04:18:13.906Z,4
2017-04-01T04:18:54.492Z,4
2017-04-01T04:19:35.093Z,8
2017-04-01T04:20:15.778Z,8
2017-04-01T04:20:56.389Z,12
2017-04-01T04:21:36.963Z,12
2017-04-01T04:22:17.591Z,12
2017-04-01T04:22:58.176Z,16
2017-04-01T04:23:38.817Z,12
2017-04-01T04:24:19.404Z,16
2017-04-01T04:25:00.044Z,16
2017-04-01T04:25:40.650Z,20
2017-04-01T04:26:21.239Z,24
2017-04-01T04:27:01.859Z,24
2017-04-01T04:27:42.462Z,28
2017-04-01T04:28:23.065Z,28
2017-04-01T04:29:03.662Z,32
2017-04-01T04:29:44.266Z,32
2017-04-01T04:30:24.860Z,40
2017-04-01T04:31:05.471Z,44
2017-04-01T04:31:46.070Z,44
2017-04-01T04:32:26.693Z,48
2017-04-01T04:33:07.331Z,52
2017-04-01T04:33:47.925Z,56
2017-04-01T04:34:28.519Z,60
2017-04-01T04:35:09.112Z,68
2017-04-01T04:35:49.830Z,68
2017-04-01T04:36:30.433Z,76
2017-04-01T04:37:11.035Z,84
2017-04-01T04:37:51.632Z,88
2017-04-01T04:38:32.251Z,96
2017-04-01T04:39:12.844Z,104
2017-04-01T04:39:53.455Z,108
2017-04-01T04:40:34.049Z,120
2017-04-01T04:41:14.643Z,124
2017-04-01T04:41:55.371Z,132
2017-04-01T04:42:35.971Z,144
2017-04-01T04:43:16.569Z,156
2017-04-01T04:43:57.151Z,168
2017-04-01T04:44:37.770Z,180
2017-04-01T04:45:18.346Z,196
2017-04-01T04:45:58.942Z,212
2017-04-01T04:46:39.552Z,224
2017-04-01T04:47:20.164Z,248
2017-04-01T04:48:00.759Z,260
2017-04-01T04:48:41.389Z,280
2017-04-01T04:49:22.000Z,304
2017-04-01T04:50:02.616Z,320
2017-04-01T04:50:43.225Z,344
2017-04-01T04:51:23.821Z,368
2017-04-01T04:52:04.425Z,396
2017-04-01T04:52:45.015Z,424
2017-04-01T04:53:25.645Z,452
2017-04-01T04:54:06.266Z,484
2017-04-01T04:54:46.894Z,512
2017-04-01T04:55:27.483Z,548
2017-04-01T04:56:08.115Z,576
2017-04-01T04:56:48.699Z,608
2017-04-01T04:57:29.302Z,644
2017-04-01T04:58:09.890Z,676
2017-04-01T04:58:50.510Z,708
2017-04-01T04:59:31.118Z,740
2017-04-01T05:00:11.717Z,772
2017-04-01T05:00:52.327Z,800
2017-04-01T05:01:32.919Z,828
2017-04-01T05:02:13.563Z,860
2017-04-01T05:02:54.177Z,892
2017-04-01T05:03:34.788Z,920
2017-04-01T05:04:15.393Z,952
2017-04-01T05:04:55.990Z,984
2017-04-01T05:05:36.624Z,1020
2017-04-01T05:06:17.231Z,1052
2017-04-01T05:06:57.818Z,1084
2017-04-01T05:07:38.414Z,1116
2017-04-01T05:08:19.005Z,1148
2017-04-01T05:08:59.602Z,1172
2017-04-01T05:09:40.220Z,1196
2017-04-01T05:10:20.844Z,1212
2017-04-01T05:11:01.454Z,1228
2017-04-01T05:11:42.049Z,1248
2017-04-01T05:12:22.695Z,1264
2017-04-01T05:13:03.292Z,1284
2017-04-01T05:13:43.868Z,1300
2017-04-01T05:14:24.470Z,1328
2017-04-01T05:15:05.072Z,1368
2017-04-01T05:15:45.663Z,1412
2017-04-01T05:16:26.288Z,1452
2017-04-01T05:17:06.878Z,1480
2017-04-01T05:17:47.466Z,1504
2017-04-01T05:18:28.091Z,1532
2017-04-01T05:19:08.720Z,1560
2017-04-01T05:19:49.362Z,1592
2017-04-01T05:20:29.958Z,1628
2017-04-01T05:21:10.565Z,1664
2017-04-01T05:21:51.153Z,1700
2017-04-01T05:22:31.766Z,1712
2017-04-01T05:23:12.355Z,1732
2017-04-01T05:23:52.964Z,1804
2017-04-01T05:24:33.566Z,1876
2017-04-01T05:25:14.161Z,1988
2017-04-01T05:25:54.751Z,2072
2017-04-01T05:26:35.354Z,2124
2017-04-01T05:27:15.962Z,2160
2017-04-01T05:27:56.617Z,2196
2017-04-01T05:28:37.230Z,2240
2017-04-01T05:29:17.822Z,2288
2017-04-01T05:29:58.419Z,2344
2017-04-01T05:30:39.020Z,2404
2017-04-01T05:31:19.616Z,2460
2017-04-01T05:32:00.223Z,2516
2017-04-01T05:32:40.820Z,2576
2017-04-01T05:33:21.428Z,2628
2017-04-01T05:34:02.044Z,2692
2017-04-01T05:34:42.643Z,2752
2017-04-01T05:35:23.267Z,2800
2017-04-01T05:36:03.898Z,2856
2017-04-01T05:36:44.516Z,2908
2017-04-01T05:37:25.079Z,2956
2017-04-01T05:38:05.738Z,3000
2017-04-01T05:38:46.334Z,3032
2017-04-01T05:39:26.943Z,3084
2017-04-01T05:40:07.545Z,3132
2017-04-01T05:40:48.159Z,3180
2017-04-01T05:41:28.776Z,3236
2017-04-01T05:42:09.381Z,3284
2017-04-01T05:42:49.974Z,3328
2017-04-01T05:43:30.592Z,3380
2017-04-01T05:44:11.165Z,3420
2017-04-01T05:44:51.753Z,3440
2017-04-01T05:45:32.380Z,3464
2017-04-01T05:46:12.971Z,3476
2017-04-01T05:46:53.593Z,3484
2017-04-01T05:47:34.217Z,3484
2017-04-01T05:48:14.816Z,3472
2017-04-01T05:48:55.417Z,3456
2017-04-01T05:49:36.011Z,3404
2017-04-01T05:50:16.617Z,3340
2017-04-01T05:50:57.225Z,3376
2017-04-01T05:51:37.933Z,3352
2017-04-01T05:52:18.674Z,3300
2017-04-01T05:52:59.320Z,3280
2017-04-01T05:53:40.217Z,3272
2017-04-01T05:54:20.780Z,3268
2017-04-01T05:55:01.385Z,3284
2017-04-01T05:55:42.555Z,3312
2017-04-01T05:56:23.143Z,3312
2017-04-01T05:57:03.777Z,3296
2017-04-01T05:57:44.424Z,3316
2017-04-01T05:58:25.005Z,3284
2017-04-01T05:59:05.614Z,3264
2017-04-01T05:59:46.225Z,3236
2017-04-01T06:00:26.834Z,3268
2017-04-01T06:01:07.467Z,3348
2017-04-01T06:01:48.047Z,3460
2017-04-01T06:02:28.625Z,3604
2017-04-01T06:03:09.233Z,3720
2017-04-01T06:03:49.817Z,3796
2017-04-01T06:04:30.405Z,3892
2017-04-01T06:05:11.024Z,3984
2017-04-01T06:05:51.656Z,4016
2017-04-01T06:06:32.236Z,4024
2017-04-01T06:07:12.861Z,4212
2017-04-01T06:07:53.462Z,4352
2017-04-01T06:08:34.036Z,4416
2017-04-01T06:09:14.638Z,4424
2017-04-01T06:09:55.246Z,4528
2017-04-01T06:10:35.816Z,4660
2017-04-01T06:11:16.422Z,4768
2017-04-01T06:11:57.008Z,4816
2017-04-01T06:12:37.631Z,4932
2017-04-01T06:13:18.214Z,5128
2017-04-01T06:13:58.835Z,5192
2017-04-01T06:14:39.448Z,5396
2017-04-01T06:15:20.040Z,5516
2017-04-01T06:16:00.664Z,5612
2017-04-01T06:16:41.260Z,5680
2017-04-01T06:17:22.461Z,5680
2017-04-01T06:18:03.318Z,5712
2017-04-01T06:18:44.013Z,5716
2017-04-01T06:19:24.594Z,5692
2017-04-01T06:20:05.301Z,5776
2017-04-01T06:20:45.916Z,5820
2017-04-01T06:21:26.554Z,5748
2017-04-01T06:22:07.142Z,5724
2017-04-01T06:22:47.745Z,5656
2017-04-01T06:23:28.385Z,5600
2017-04-01T06:24:08.982Z,5408
2017-04-01T06:24:49.576Z,5260
2017-04-01T06:25:30.179Z,5200
2017-04-01T06:26:10.807Z,5132
2017-04-01T06:26:51.387Z,5056
2017-04-01T06:27:32.015Z,4996
2017-04-01T06:28:12.598Z,4992
2017-04-01T06:28:53.227Z,5180
2017-04-01T06:29:33.838Z,5492
2017-04-01T06:30:14.422Z,5820
2017-04-01T06:30:55.060Z,6072
2017-04-01T06:31:35.659Z,6380
2017-04-01T06:32:16.262Z,6548
2017-04-01T06:32:56.865Z,6608
2017-04-01T06:33:37.473Z,6596
2017-04-01T06:34:18.066Z,6592
2017-04-01T06:34:58.680Z,6580
2017-04-01T06:35:39.270Z,6616
2017-04-01T06:36:19.862Z,6528
2017-04-01T06:37:00.443Z,6612
2017-04-01T06:37:41.032Z,6676
2017-04-01T06:38:21.666Z,6736
2017-04-01T06:39:02.278Z,6652
2017-04-01T06:39:42.927Z,6848
2017-04-01T06:40:23.538Z,7492
2017-04-01T06:41:04.134Z,12020
2017-04-01T06:41:44.808Z,22016
2017-04-01T06:42:25.370Z,39200
2017-04-01T06:43:05.978Z,61920
2017-04-01T06:43:46.563Z,63872
2017-04-01T06:44:27.168Z,60512
2017-04-01T06:45:07.811Z,60448
2017-04-01T06:45:48.434Z,60608
2017-04-01T06:46:29.028Z,62688
2017-04-01T06:47:09.626Z,57408
2017-04-01T06:47:50.208Z,57568
2017-04-01T06:48:30.797Z,57504
2017-04-01T06:49:11.385Z,59424
2017-04-01T06:49:52.003Z,60416
2017-04-01T06:50:32.592Z,61632
2017-04-01T06:51:13.210Z,59808
2017-04-01T06:51:53.807Z,60832
2017-04-01T06:52:34.389Z,58464
2017-04-01T06:53:15.012Z,62080
2017-04-01T06:53:55.628Z,63328
2017-04-01T06:54:36.223Z,63488
2017-04-01T06:55:16.871Z,61312
2017-04-01T06:55:57.460Z,63136
2017-04-01T06:56:38.076Z,68544
2017-04-01T06:57:18.675Z,69376
2017-04-01T06:57:59.285Z,71392
2017-04-01T06:58:39.887Z,71968
2017-04-01T06:59:20.509Z,72640
2017-04-01T07:00:01.117Z,70464
2017-04-01T07:00:41.749Z,68448
2017-04-01T07:01:22.351Z,67872
2017-04-01T07:02:02.979Z,65984
2017-04-01T07:02:43.602Z,72416
2017-04-01T07:03:24.198Z,70176
2017-04-01T07:04:04.813Z,70688
2017-04-01T07:04:45.414Z,69760
2017-04-01T07:05:26.033Z,68672
2017-04-01T07:06:06.650Z,68768
2017-04-01T07:06:47.264Z,73248
2017-04-01T07:07:27.866Z,72768
2017-04-01T07:08:08.486Z,73088
2017-04-01T07:08:49.090Z,74496
2017-04-01T07:09:29.701Z,71904
2017-04-01T07:10:10.312Z,74656
2017-04-01T07:10:50.927Z,75008
2017-04-01T07:11:31.506Z,76736
2017-04-01T07:12:12.116Z,77376
2017-04-01T07:12:52.706Z,76768
2017-04-01T07:13:33.324Z,79328
2017-04-01T07:14:13.914Z,79264
2017-04-01T07:14:54.539Z,80736
2017-04-01T07:15:35.124Z,80448
2017-04-01T07:16:15.749Z,81184
2017-04-01T07:16:56.372Z,81408
2017-04-01T07:17:36.985Z,80352
2017-04-01T07:18:17.591Z,72288
2017-04-01T07:18:58.181Z,77248
2017-04-01T07:19:38.805Z,80544
2017-04-01T07:20:19.415Z,78880
2017-04-01T07:21:00.007Z,79104
2017-04-01T07:21:40.626Z,81600
2017-04-01T07:22:21.236Z,81760
2017-04-01T07:23:01.850Z,81248
2017-04-01T07:23:42.450Z,80512
2017-04-01T07:24:23.086Z,79808
2017-04-01T07:25:03.712Z,79424
2017-04-01T07:25:44.301Z,78912
2017-04-01T07:26:24.943Z,79552
2017-04-01T07:27:05.590Z,77344
2017-04-01T07:27:46.262Z,73120
2017-04-01T07:28:26.918Z,69504
2017-04-01T07:29:07.584Z,71744
2017-04-01T07:29:48.264Z,76640
2017-04-01T07:30:29.004Z,80032
2017-04-01T07:31:09.656Z,80320
2017-04-01T07:31:50.380Z,76832
2017-04-01T07:32:31.133Z,75968
2017-04-01T07:33:11.877Z,70496
2017-04-01T07:33:52.610Z,64960
2017-04-01T07:34:33.360Z,84800
2017-04-01T07:35:14.026Z,83360
2017-04-01T07:35:54.692Z,82944
2017-04-01T07:36:35.304Z,80576
2017-04-01T07:37:15.907Z,79616
2017-04-01T07:37:56.563Z,85792
2017-04-01T07:38:37.192Z,84384
2017-04-01T07:39:17.795Z,82560
2017-04-01T07:39:58.390Z,82944
2017-04-01T07:40:38.982Z,82784
2017-04-01T07:41:19.577Z,82656
2017-04-01T07:42:00.179Z,83296
2017-04-01T07:42:40.823Z,84480
2017-04-01T07:43:21.463Z,84128
2017-04-01T07:44:02.047Z,83424
2017-04-01T07:44:42.662Z,82560
2017-04-01T07:45:23.263Z,83616
2017-04-01T07:46:03.890Z,84160
2017-04-01T07:46:44.530Z,75360
2017-04-01T07:47:25.154Z,76000
2017-04-01T07:48:05.760Z,73184
2017-04-01T07:48:46.374Z,80768
2017-04-01T07:49:26.975Z,80384
2017-04-01T07:50:07.589Z,79392
2017-04-01T07:50:48.205Z,81824
2017-04-01T07:51:28.819Z,82688
2017-04-01T07:52:09.434Z,82912
2017-04-01T07:52:50.039Z,82464
2017-04-01T07:53:30.656Z,80160
2017-04-01T07:54:11.290Z,75808
2017-04-01T07:54:51.907Z,76864
2017-04-01T07:55:32.507Z,75200
2017-04-01T07:56:13.148Z,75360
2017-04-01T07:56:53.752Z,77152
2017-04-01T07:57:34.396Z,77440
2017-04-01T07:58:15.010Z,77184
2017-04-01T07:58:55.636Z,78432
2017-04-01T07:59:36.222Z,78880
2017-04-01T08:00:16.853Z,77920
2017-04-01T08:00:57.471Z,78304
2017-04-01T08:01:38.891Z,80032
2017-04-01T08:02:19.913Z,82560
2017-04-01T08:03:00.521Z,82400
2017-04-01T08:03:42.019Z,81728
2017-04-01T08:04:33.565Z,80672
2017-04-01T08:05:16.791Z,80960
2017-04-01T08:05:57.433Z,79552
2017-04-01T08:06:38.130Z,78400
2017-04-01T08:07:18.768Z,74048
2017-04-01T08:07:59.636Z,74816
2017-04-01T08:08:40.786Z,76576
2017-04-01T08:09:22.935Z,79648
2017-04-01T08:10:05.762Z,75616
2017-04-01T08:10:50.320Z,77472
2017-04-01T08:11:38.010Z,71040
2017-04-01T08:12:19.530Z,77504
2017-04-01T08:13:00.175Z,75616
2017-04-01T08:13:43.380Z,74624
2017-04-01T08:14:24.000Z,77504
2017-04-01T08:15:04.655Z,75744
2017-04-01T08:15:47.576Z,71744
2017-04-01T08:16:30.173Z,70784
2017-04-01T08:17:15.109Z,67808
2017-04-01T08:17:56.861Z,72000
2017-04-01T08:18:38.091Z,71328
2017-04-01T08:19:21.790Z,70880
2017-04-01T08:20:03.831Z,62496
2017-04-01T08:20:44.456Z,45152
2017-04-01T08:21:25.082Z,28160
2017-04-01T08:22:05.695Z,22400
2017-04-01T08:22:46.322Z,21888
2017-04-01T08:23:26.974Z,21216
2017-04-01T08:24:07.590Z,20704
2017-04-01T08:24:48.247Z,20256
2017-04-01T08:25:28.920Z,19808
2017-04-01T08:26:10.489Z,19200
2017-04-01T08:26:56.296Z,18656
2017-04-01T08:27:41.926Z,18336
2017-04-01T08:28:22.977Z,15872
2017-04-01T08:29:06.984Z,15712
2017-04-01T08:29:49.570Z,15040
2017-04-01T08:30:30.547Z,15008
2017-04-01T08:31:12.699Z,14544
2017-04-01T08:31:54.260Z,14296
2017-04-01T08:32:35.141Z,14604
2017-04-01T08:33:15.927Z,14980
2017-04-01T08:33:56.708Z,14592
2017-04-01T08:34:37.336Z,14616
2017-04-01T08:35:17.948Z,14380
2017-04-01T08:35:58.959Z,13792
2017-04-01T08:36:39.554Z,13616
2017-04-01T08:37:20.890Z,13396
2017-04-01T08:38:01.474Z,13124
2017-04-01T08:38:42.161Z,13036
2017-04-01T08:39:22.797Z,12816
2017-04-01T08:40:03.422Z,12588
2017-04-01T08:40:44.047Z,12496
2017-04-01T08:41:24.646Z,12308
2017-04-01T08:42:05.243Z,12040
2017-04-01T08:42:46.186Z,11832
2017-04-01T08:43:27.269Z,11616
2017-04-01T08:44:07.901Z,11320
2017-04-01T08:44:48.505Z,11116
2017-04-01T08:45:29.680Z,10880
2017-04-01T08:46:11.250Z,10660
2017-04-01T08:46:52.107Z,10328
2017-04-01T08:47:32.767Z,10152
2017-04-01T08:48:14.203Z,10116
2017-04-01T08:48:55.199Z,9980
2017-04-01T08:49:36.065Z,9860
2017-04-01T08:50:16.708Z,9692
2017-04-01T08:50:57.340Z,9636
2017-04-01T08:51:38.130Z,9556
2017-04-01T08:52:18.744Z,9416
2017-04-01T08:52:59.522Z,9364
2017-04-01T08:53:40.636Z,9324
2017-04-01T08:54:21.303Z,9108
2017-04-01T08:55:01.918Z,9004
2017-04-01T08:55:42.502Z,9140
2017-04-01T08:56:23.095Z,9076
2017-04-01T08:57:05.369Z,8984
2017-04-01T08:57:49.745Z,8884
2017-04-01T08:58:33.713Z,8820
2017-04-01T08:59:15.828Z,8768
2017-04-01T08:59:57.906Z,8700
2017-04-01T09:00:40.677Z,8648
2017-04-01T09:01:22.299Z,8596
2017-04-01T09:02:02.922Z,8556
2017-04-01T09:02:43.979Z,8504
2017-04-01T09:03:24.980Z,8448
2017-04-01T09:04:07.444Z,8380
2017-04-01T09:04:49.546Z,8140
2017-04-01T09:05:31.464Z,8044
2017-04-01T09:06:12.079Z,8084
2017-04-01T09:06:52.685Z,7940
2017-04-01T09:07:33.291Z,8004
2017-04-01T09:08:13.887Z,8024
2017-04-01T09:08:59.428Z,7960
2017-04-01T09:09:45.201Z,7844
2017-04-01T09:10:26.755Z,7648
2017-04-01T09:11:08.656Z,7488
2017-04-01T09:11:55.085Z,7336
2017-04-01T09:12:37.240Z,7264
2017-04-01T09:13:21.934Z,7208
2017-04-01T09:14:05.246Z,6964
2017-04-01T09:14:46.352Z,6980
2017-04-01T09:15:28.807Z,7148
2017-04-01T09:16:09.406Z,7000
2017-04-01T09:16:50.023Z,6852
2017-04-01T09:17:30.601Z,6940
2017-04-01T09:18:11.202Z,7188
2017-04-01T09:18:51.791Z,7344
2017-04-01T09:19:32.377Z,7500
2017-04-01T09:20:12.961Z,7516
2017-04-01T09:20:53.568Z,7840
2017-04-01T09:21:34.179Z,7924
2017-04-01T09:22:14.768Z,7924
2017-04-01T09:22:55.397Z,7864
2017-04-01T09:23:35.983Z,7872
2017-04-01T09:24:16.559Z,7968
2017-04-01T09:24:57.180Z,8348
2017-04-01T09:25:37.778Z,8676
2017-04-01T09:26:18.383Z,8972